Time;durP1;ratioP1;P1;durP2;ratioP2;P2;SDS_P1;SDS_P2;PMS_P1;PMS_P2;Temp;Humidity;BMP_temperature;BMP_pressure;BME280_temperature;BME280_humidity;BME280_pressure;Samples;Min_cycle;Max_cycle;Signal;HPM_P1;HPM_P2
2021/12/19 00:00:10;;;;;;;;;13.50;13.50;11.40;99.90;;;;;;5052971;28;11567;-49
2021/12/19 00:10:53;;;;;;;;;12.50;12.50;11.50;99.90;;;;;;5046809;28;11502;-50
2021/12/19 00:13:25;;;;;;;;;13.75;13.75;11.50;99.90;;;;;;5045571;28;11473;-52
2021/12/19 00:15:56;;;;;;;;;13.00;13.00;11.50;99.90;;;;;;5048292;28;11522;-50
2021/12/19 00:18:26;;;;;;;;;10.75;10.75;11.50;99.90;;;;;;5047438;28;11985;-51
2021/12/19 00:20:57;;;;;;;;;9.50;9.50;11.50;99.90;;;;;;5045171;28;11504;-49
2021/12/19 00:23:41;;;;;;;;;12.00;12.00;11.50;99.90;;;;;;5034710;28;11666;-51
2021/12/19 00:26:12;;;;;;;;;12.75;12.75;11.50;99.90;;;;;;5045877;28;12854;-51
2021/12/19 00:28:44;;;;;;;;;16.00;16.00;11.50;99.90;;;;;;5041782;28;11509;-49
2021/12/19 00:31:16;;;;;;;;;9.25;9.25;11.50;99.90;;;;;;5044764;28;11549;-52
2021/12/19 00:33:46;;;;;;;;;11.50;11.50;11.50;99.90;;;;;;5027335;28;11707;-52
2021/12/19 00:36:17;;;;;;;;;9.75;9.75;11.50;99.90;;;;;;5043111;28;11572;-53
2021/12/19 00:38:49;;;;;;;;;12.50;12.50;11.50;99.90;;;;;;5038578;28;11572;-51
2021/12/19 00:41:20;;;;;;;;;12.00;12.00;11.50;99.90;;;;;;5052768;28;11549;-47
2021/12/19 00:44:07;;;;;;;;;9.00;9.00;11.50;99.90;;;;;;5045908;28;11493;-51
2021/12/19 00:46:47;;;;;;;;;12.25;10.25;11.50;99.90;;;;;;5049252;28;12404;-53
2021/12/19 00:49:22;;;;;;;;;7.75;7.75;11.50;99.90;;;;;;5052940;28;11616;-51
2021/12/19 00:51:53;;;;;;;;;13.00;12.50;11.50;99.90;;;;;;5035119;28;11515;-55
2021/12/19 00:54:23;;;;;;;;;12.25;12.25;11.50;99.90;;;;;;5041452;28;11571;-55
2021/12/19 00:56:55;;;;;;;;;8.00;8.00;11.50;99.90;;;;;;5040583;28;11623;-49
2021/12/19 00:59:25;;;;;;;;;12.00;12.00;11.50;99.90;;;;;;5040177;28;11511;-52
2021/12/19 01:01:55;;;;;;;;;11.75;11.75;11.50;99.90;;;;;;5042203;28;11518;-50
2021/12/19 01:04:25;;;;;;;;;10.25;10.25;11.40;99.90;;;;;;5042994;28;11505;-50
2021/12/19 01:07:00;;;;;;;;;10.25;10.25;11.40;99.90;;;;;;5038912;28;11523;-50
2021/12/19 01:09:31;;;;;;;;;9.00;9.00;11.40;99.90;;;;;;5042987;28;11536;-49
2021/12/19 01:12:03;;;;;;;;;6.00;6.00;11.40;99.90;;;;;;5045346;28;11557;-54
2021/12/19 01:14:33;;;;;;;;;8.50;8.50;11.40;99.90;;;;;;5043637;28;11458;-55
2021/12/19 01:17:04;;;;;;;;;14.25;12.50;11.40;99.90;;;;;;5040833;28;11591;-53
2021/12/19 01:19:34;;;;;;;;;19.00;19.00;11.40;99.90;;;;;;5025103;28;11615;-52
2021/12/19 01:22:06;;;;;;;;;17.50;16.25;11.40;99.90;;;;;;5035125;28;11722;-51
2021/12/19 01:24:37;;;;;;;;;17.00;17.00;11.40;99.90;;;;;;5041375;28;12207;-50
2021/12/19 01:27:08;;;;;;;;;17.00;17.00;11.40;99.90;;;;;;5040828;28;11601;-53
2021/12/19 01:29:37;;;;;;;;;16.50;16.50;11.40;99.90;;;;;;5041344;28;12250;-52
2021/12/19 01:32:08;;;;;;;;;18.50;18.50;11.30;99.90;;;;;;5036565;28;12315;-49
2021/12/19 01:34:38;;;;;;;;;17.50;17.50;11.30;99.90;;;;;;5041950;28;11631;-52
2021/12/19 01:37:09;;;;;;;;;19.50;19.50;11.30;99.90;;;;;;5040122;28;11603;-51
2021/12/19 01:39:40;;;;;;;;;18.75;18.75;11.30;99.90;;;;;;5041060;28;12311;-50
2021/12/19 01:42:12;;;;;;;;;22.25;22.25;11.30;99.90;;;;;;5039717;28;11525;-51
2021/12/19 01:44:44;;;;;;;;;21.75;21.75;11.30;99.90;;;;;;5042818;28;11635;-51
2021/12/19 01:47:15;;;;;;;;;24.00;24.00;11.30;99.90;;;;;;5046609;28;11535;-51
2021/12/19 01:49:47;;;;;;;;;28.00;28.00;11.20;99.90;;;;;;5043791;28;11765;-48
2021/12/19 01:52:17;;;;;;;;;26.00;26.00;11.20;99.90;;;;;;5039093;28;11540;-54
2021/12/19 01:54:47;;;;;;;;;24.25;23.25;11.20;99.90;;;;;;5041944;28;11540;-52
2021/12/19 01:57:18;;;;;;;;;26.25;26.25;11.20;99.90;;;;;;5008610;28;11637;-53
2021/12/19 01:59:50;;;;;;;;;25.50;25.50;11.20;99.90;;;;;;5034999;28;11658;-51
2021/12/19 02:02:21;;;;;;;;;24.25;24.25;11.20;99.90;;;;;;5040505;28;11524;-51
2021/12/19 02:04:53;;;;;;;;;25.75;25.75;11.10;99.90;;;;;;5038705;28;11515;-52
2021/12/19 02:07:25;;;;;;;;;20.00;19.00;11.10;99.90;;;;;;5035652;28;11646;-52
2021/12/19 02:09:56;;;;;;;;;15.75;15.75;11.10;99.90;;;;;;5007321;28;11655;-49
2021/12/19 02:12:28;;;;;;;;;18.25;18.25;11.10;99.90;;;;;;5045956;28;11673;-52
2021/12/19 02:14:58;;;;;;;;;15.50;15.50;11.10;99.90;;;;;;5040182;28;11593;-53
2021/12/19 02:17:30;;;;;;;;;18.50;18.50;11.10;99.90;;;;;;5039614;28;12064;-50
2021/12/19 02:20:02;;;;;;;;;16.00;16.00;11.00;99.90;;;;;;5036594;28;13145;-53
2021/12/19 02:22:33;;;;;;;;;13.50;13.50;11.10;99.90;;;;;;5028777;28;12764;-47
2021/12/19 02:25:05;;;;;;;;;16.75;16.75;11.00;99.90;;;;;;5021668;28;11538;-52
2021/12/19 02:27:37;;;;;;;;;20.50;19.75;11.00;99.90;;;;;;5040289;28;11752;-49
2021/12/19 02:30:10;;;;;;;;;16.75;16.75;11.00;99.90;;;;;;5025483;28;11522;-52
2021/12/19 02:32:41;;;;;;;;;19.00;17.25;11.00;99.90;;;;;;5036959;28;12354;-48
2021/12/19 02:35:20;;;;;;;;;14.50;14.50;10.90;99.90;;;;;;5027059;28;11528;-50
2021/12/19 02:48:09;;;;;;;;;18.00;18.00;10.90;99.90;;;;;;5036433;28;11509;-53
2021/12/19 02:49:07;;;;;;;;;17.25;16.00;10.90;99.90;;;;;;5038861;28;11583;-49
2021/12/19 02:51:37;;;;;;;;;17.25;17.25;10.80;99.90;;;;;;5035040;28;11605;-51
2021/12/19 02:54:09;;;;;;;;;16.00;16.00;10.80;99.90;;;;;;5035234;28;11579;-50
2021/12/19 02:56:41;;;;;;;;;15.75;15.75;10.80;99.90;;;;;;5038496;28;11779;-53
2021/12/19 02:59:13;;;;;;;;;10.50;10.50;10.80;99.90;;;;;;5037850;28;11635;-51
2021/12/19 03:01:45;;;;;;;;;23.25;21.75;10.70;99.90;;;;;;5040099;28;11626;-51
2021/12/19 03:04:16;;;;;;;;;20.25;20.25;10.80;99.90;;;;;;5045668;28;11764;-51
2021/12/19 03:06:49;;;;;;;;;21.00;19.25;10.70;99.90;;;;;;5040302;28;12759;-51
2021/12/19 03:10:02;;;;;;;;;19.50;19.50;10.70;99.90;;;;;;5048540;28;11513;-51
2021/12/19 03:18:20;;;;;;;;;18.50;18.50;10.70;99.90;;;;;;5039173;28;11736;-51
2021/12/19 03:20:52;;;;;;;;;18.75;18.75;10.70;99.90;;;;;;5038891;28;11576;-51
2021/12/19 03:23:22;;;;;;;;;21.50;21.50;10.60;99.90;;;;;;5047301;28;11550;-53
2021/12/19 03:25:54;;;;;;;;;21.00;21.00;10.60;99.90;;;;;;5042611;28;11640;-52
2021/12/19 03:28:25;;;;;;;;;19.75;19.75;10.60;99.90;;;;;;5038515;28;11598;-50
2021/12/19 03:30:55;;;;;;;;;15.00;15.00;10.60;99.90;;;;;;5044380;28;11635;-49
2021/12/19 03:33:26;;;;;;;;;22.00;22.00;10.60;99.90;;;;;;5043588;28;12264;-50
2021/12/19 03:35:57;;;;;;;;;20.50;19.25;10.60;99.90;;;;;;5052424;28;11600;-47
2021/12/19 03:38:29;;;;;;;;;19.00;19.00;10.50;99.90;;;;;;5049250;28;11599;-52
2021/12/19 03:43:42;;;;;;;;;20.00;20.00;10.50;99.90;;;;;;5046214;28;11634;-53
2021/12/19 03:46:13;;;;;;;;;24.00;24.00;10.50;99.90;;;;;;5049647;28;11532;-49
2021/12/19 03:48:44;;;;;;;;;22.00;22.00;10.50;99.90;;;;;;5043473;28;11650;-50
2021/12/19 03:51:15;;;;;;;;;22.75;22.75;10.40;99.90;;;;;;5042027;28;11703;-53
2021/12/19 03:53:47;;;;;;;;;22.25;22.25;10.40;99.90;;;;;;5032357;28;11583;-51
2021/12/19 03:56:17;;;;;;;;;26.50;26.50;10.40;99.90;;;;;;5044642;28;11591;-52
2021/12/19 03:58:51;;;;;;;;;21.25;21.25;10.30;99.90;;;;;;5046963;28;11565;-52
2021/12/19 04:01:22;;;;;;;;;22.75;22.75;10.30;99.90;;;;;;5045505;28;11688;-52
2021/12/19 04:03:56;;;;;;;;;17.50;17.50;10.30;99.90;;;;;;5050316;28;11712;-52
2021/12/19 04:06:28;;;;;;;;;27.00;27.00;10.30;99.90;;;;;;5047814;28;11828;-52
2021/12/19 04:08:59;;;;;;;;;25.00;25.00;10.20;99.90;;;;;;5052312;28;11587;-53
2021/12/19 04:11:30;;;;;;;;;21.00;21.00;10.20;99.90;;;;;;5047797;28;11616;-51
2021/12/19 04:14:01;;;;;;;;;16.75;16.75;10.10;99.90;;;;;;5052387;28;11529;-55
2021/12/19 04:16:33;;;;;;;;;21.00;21.00;10.20;99.90;;;;;;5043915;28;11515;-48
2021/12/19 04:19:03;;;;;;;;;13.00;13.00;10.20;99.90;;;;;;5045898;28;11648;-51
2021/12/19 04:21:36;;;;;;;;;19.25;19.25;10.10;99.90;;;;;;5044080;28;12365;-52
2021/12/19 04:24:06;;;;;;;;;20.75;20.75;10.10;99.90;;;;;;5048951;28;11526;-51
2021/12/19 04:26:36;;;;;;;;;16.75;16.75;10.10;99.90;;;;;;5043570;28;11694;-51
2021/12/19 04:29:08;;;;;;;;;19.50;19.50;10.10;99.90;;;;;;5050145;28;11649;-49
2021/12/19 04:31:40;;;;;;;;;17.25;17.00;10.00;99.90;;;;;;5023160;28;11598;-50
2021/12/19 04:34:13;;;;;;;;;19.50;19.50;10.00;99.90;;;;;;5043639;28;11647;-53
2021/12/19 04:36:49;;;;;;;;;19.50;19.50;10.00;99.90;;;;;;5040504;28;12309;-53
2021/12/19 04:56:29;;;;;;;;;18.25;18.25;9.90;99.90;;;;;;4946964;28;11631;-52
2021/12/19 04:59:24;;;;;;;;;24.75;22.75;9.80;99.90;;;;;;5050332;28;11689;-48
2021/12/19 05:15:47;;;;;;;;;26.75;26.75;9.70;99.90;;;;;;5047451;28;11503;-52
2021/12/19 05:18:21;;;;;;;;;27.67;27.67;9.70;99.90;;;;;;5046611;28;11566;-49
2021/12/19 05:21:00;;;;;;;;;30.67;28.33;9.70;99.90;;;;;;5044610;28;11789;-51
2021/12/19 05:26:04;;;;;;;;;32.25;30.75;9.60;99.90;;;;;;5052664;28;11503;-52
2021/12/19 05:28:35;;;;;;;;;26.00;26.00;9.60;99.90;;;;;;5042015;28;11591;-51
2021/12/19 05:31:08;;;;;;;;;24.67;24.67;9.50;99.90;;;;;;5033354;28;11561;-52
2021/12/19 05:33:38;;;;;;;;;30.33;30.33;9.50;99.90;;;;;;5043457;28;8848;-53
2021/12/19 05:47:16;;;;;;;;;24.00;24.00;9.40;99.90;;;;;;5043373;28;11706;-54
2021/12/19 05:49:46;;;;;;;;;23.00;20.50;9.30;99.90;;;;;;5050099;28;11540;-50
2021/12/19 05:52:18;;;;;;;;;25.25;24.00;9.30;99.90;;;;;;5044369;28;12361;-52
2021/12/19 05:54:48;;;;;;;;;25.00;25.00;9.30;99.90;;;;;;5047868;28;11554;-52
2021/12/19 05:57:20;;;;;;;;;24.50;24.50;9.30;99.90;;;;;;5049111;28;11558;-53
2021/12/19 05:59:51;;;;;;;;;25.00;25.00;9.30;99.90;;;;;;5043529;28;11562;-50
2021/12/19 06:02:21;;;;;;;;;24.00;24.00;9.40;99.90;;;;;;5046055;28;11692;-52
2021/12/19 06:04:52;;;;;;;;;29.67;29.67;9.40;99.90;;;;;;5042610;28;8922;-53
2021/12/19 06:07:23;;;;;;;;;26.00;26.00;9.30;99.90;;;;;;5046388;28;11587;-53
2021/12/19 06:09:54;;;;;;;;;25.67;25.67;9.30;99.90;;;;;;5043307;28;12275;-51
2021/12/19 06:12:25;;;;;;;;;28.67;28.67;9.30;99.90;;;;;;5032130;28;11586;-51
2021/12/19 06:14:57;;;;;;;;;29.00;28.00;9.30;99.90;;;;;;5048460;28;8821;-53
2021/12/19 06:17:26;;;;;;;;;24.00;24.00;9.30;99.90;;;;;;5049113;28;8937;-55
2021/12/19 06:19:56;;;;;;;;;25.00;25.00;9.30;99.90;;;;;;5047890;28;11761;-50
2021/12/19 06:22:27;;;;;;;;;31.33;31.33;9.30;99.90;;;;;;5043369;28;12429;-53
2021/12/19 06:24:58;;;;;;;;;28.00;26.67;9.30;99.90;;;;;;5049128;28;8869;-53
2021/12/19 06:27:29;;;;;;;;;28.67;28.67;9.20;99.90;;;;;;5033191;28;8857;-50
2021/12/19 06:29:59;;;;;;;;;29.50;29.50;9.20;99.90;;;;;;5042869;28;8816;-54
2021/12/19 06:32:31;;;;;;;;;31.67;31.67;9.20;99.90;;;;;;5048606;28;11542;-49
2021/12/19 06:35:07;;;;;;;;;29.00;29.00;9.20;99.90;;;;;;5049510;28;8976;-53
2021/12/19 06:37:38;;;;;;;;;29.33;29.33;9.20;99.90;;;;;;5049224;28;8870;-53
2021/12/19 06:40:11;;;;;;;;;30.00;30.00;9.20;99.90;;;;;;5045470;28;8890;-52
2021/12/19 06:42:42;;;;;;;;;38.33;37.00;9.10;99.90;;;;;;5042904;28;8887;-51
2021/12/19 06:45:19;;;;;;;;;35.33;34.67;9.10;99.90;;;;;;5045996;28;8855;-50
2021/12/19 06:47:51;;;;;;;;;37.00;35.67;9.10;99.90;;;;;;5043954;28;8858;-53
2021/12/19 06:50:26;;;;;;;;;31.33;31.33;9.10;99.90;;;;;;5044364;28;8854;-52
2021/12/19 06:52:56;;;;;;;;;25.67;25.67;9.10;99.90;;;;;;5045571;28;8826;-52
2021/12/19 06:55:27;;;;;;;;;29.00;29.00;9.10;99.90;;;;;;5043964;28;8843;-53
2021/12/19 06:57:57;;;;;;;;;26.67;26.67;9.10;99.90;;;;;;5039160;28;8858;-54
2021/12/19 07:00:27;;;;;;;;;28.67;28.67;9.00;99.90;;;;;;5032527;28;8860;-52
2021/12/19 07:02:58;;;;;;;;;26.33;26.33;9.00;99.90;;;;;;5040923;28;8996;-52
2021/12/19 07:05:29;;;;;;;;;32.67;32.67;9.00;99.90;;;;;;5039534;28;9245;-51
2021/12/19 07:07:59;;;;;;;;;25.00;23.00;9.00;99.90;;;;;;5043957;28;8864;-52
2021/12/19 07:10:30;;;;;;;;;27.00;27.00;9.00;99.90;;;;;;5052285;28;11495;-49
2021/12/19 07:13:00;;;;;;;;;26.67;26.67;9.00;99.90;;;;;;5047674;28;8866;-51
2021/12/19 07:15:31;;;;;;;;;25.00;25.00;9.00;99.90;;;;;;5044823;28;8869;-51
2021/12/19 07:18:06;;;;;;;;;24.67;24.67;9.00;99.90;;;;;;5043907;28;8858;-54
2021/12/19 07:20:42;;;;;;;;;23.33;23.33;8.90;99.90;;;;;;5042596;28;11532;-53
2021/12/19 07:23:14;;;;;;;;;18.33;18.33;8.90;99.90;;;;;;5039707;28;9624;-51
2021/12/19 07:25:46;;;;;;;;;21.00;21.00;8.90;99.90;;;;;;5048558;28;11646;-51
2021/12/19 07:28:17;;;;;;;;;22.67;22.67;8.80;99.90;;;;;;5040180;28;11608;-53
2021/12/19 07:30:49;;;;;;;;;20.67;20.67;8.90;99.90;;;;;;5043489;28;8856;-53
2021/12/19 07:33:20;;;;;;;;;23.00;23.00;8.90;99.90;;;;;;5042372;28;8849;-54
2021/12/19 07:35:52;;;;;;;;;27.67;27.67;8.90;99.90;;;;;;5043151;28;11539;-50
2021/12/19 07:38:39;;;;;;;;;27.33;26.67;8.80;99.90;;;;;;5037545;28;11632;-51
2021/12/19 07:41:09;;;;;;;;;24.67;24.00;8.80;99.90;;;;;;5046542;28;11579;-53
2021/12/19 07:43:39;;;;;;;;;26.33;26.33;8.80;99.90;;;;;;5033095;28;8883;-54
2021/12/19 07:46:09;;;;;;;;;24.67;23.33;8.80;99.90;;;;;;5037619;28;8854;-50
2021/12/19 07:48:40;;;;;;;;;24.67;24.67;8.80;99.90;;;;;;5045049;28;8843;-54
2021/12/19 07:51:12;;;;;;;;;26.00;24.33;8.70;99.90;;;;;;5044245;28;11614;-52
2021/12/19 07:53:43;;;;;;;;;23.00;23.00;8.70;99.90;;;;;;5053011;28;11552;-51
2021/12/19 07:56:14;;;;;;;;;24.00;21.75;8.70;99.90;;;;;;5047126;28;11556;-51
2021/12/19 07:58:44;;;;;;;;;23.00;23.00;8.60;99.90;;;;;;5052074;28;11554;-48
2021/12/19 08:01:14;;;;;;;;;21.00;21.00;8.70;99.90;;;;;;5048248;28;11714;-52
2021/12/19 08:03:45;;;;;;;;;23.67;23.67;8.70;99.90;;;;;;5047148;28;11628;-49
2021/12/19 08:06:15;;;;;;;;;20.00;20.00;8.70;99.90;;;;;;5042316;28;11538;-50
2021/12/19 08:08:53;;;;;;;;;18.67;17.33;8.70;99.90;;;;;;5045577;28;11591;-52
2021/12/19 08:11:42;;;;;;;;;21.67;21.67;8.60;99.90;;;;;;5042126;28;8900;-54
2021/12/19 08:14:16;;;;;;;;;24.67;23.00;8.60;99.90;;;;;;5050033;28;12321;-53
2021/12/19 08:16:48;;;;;;;;;22.33;22.33;8.60;99.90;;;;;;5044458;28;12286;-54
2021/12/19 08:19:19;;;;;;;;;19.25;19.25;8.60;99.90;;;;;;5058983;28;11539;-52
2021/12/19 08:21:50;;;;;;;;;23.50;23.50;8.60;99.90;;;;;;5039957;28;11530;-53
2021/12/19 08:24:22;;;;;;;;;23.33;23.33;8.60;99.90;;;;;;5046813;28;12297;-54
2021/12/19 08:26:53;;;;;;;;;27.00;25.33;8.50;99.90;;;;;;5049889;28;12223;-53
2021/12/19 08:29:24;;;;;;;;;21.67;21.67;8.50;99.90;;;;;;5051565;28;11666;-53
2021/12/19 08:31:54;;;;;;;;;24.00;24.00;8.50;99.90;;;;;;5046840;28;8836;-53
2021/12/19 08:34:24;;;;;;;;;28.33;28.33;8.50;99.90;;;;;;5049913;28;11574;-53
2021/12/19 08:36:55;;;;;;;;;24.00;24.00;8.60;99.90;;;;;;5047572;28;8845;-51
2021/12/19 08:39:28;;;;;;;;;21.33;21.33;8.50;99.90;;;;;;5052310;28;8901;-51
2021/12/19 08:42:00;;;;;;;;;24.67;24.67;8.50;99.90;;;;;;5052145;28;11529;-53
2021/12/19 08:44:32;;;;;;;;;23.67;23.67;8.40;99.90;;;;;;5046049;28;9010;-52
2021/12/19 08:47:03;;;;;;;;;27.67;27.67;8.40;99.90;;;;;;5045897;28;11564;-52
2021/12/19 08:49:34;;;;;;;;;23.33;22.67;8.30;99.90;;;;;;5047140;28;8834;-50
2021/12/19 08:52:06;;;;;;;;;21.67;21.67;8.30;99.90;;;;;;5048797;28;8864;-53
2021/12/19 08:54:36;;;;;;;;;20.67;20.33;8.30;99.90;;;;;;5046164;28;11564;-54
2021/12/19 08:57:07;;;;;;;;;20.67;20.67;8.30;99.90;;;;;;5048910;28;9576;-51
2021/12/19 08:59:37;;;;;;;;;18.33;18.33;8.30;99.90;;;;;;5046585;28;8894;-54
2021/12/19 09:02:09;;;;;;;;;27.00;27.00;8.30;99.90;;;;;;5053607;28;8833;-52
2021/12/19 09:04:39;;;;;;;;;23.67;23.67;8.30;99.90;;;;;;5045305;28;12409;-51
2021/12/19 09:07:10;;;;;;;;;25.00;22.67;8.30;99.90;;;;;;5038591;28;8866;-49
2021/12/19 09:09:40;;;;;;;;;26.67;26.67;8.30;99.90;;;;;;5048095;28;8832;-51
2021/12/19 09:12:10;;;;;;;;;24.67;22.67;8.30;99.90;;;;;;5045148;28;8937;-53
2021/12/19 09:14:40;;;;;;;;;30.33;30.33;8.20;99.90;;;;;;5044763;28;8840;-50
2021/12/19 09:17:11;;;;;;;;;28.00;27.00;8.10;99.90;;;;;;5049692;28;11586;-53
2021/12/19 09:19:43;;;;;;;;;29.00;28.00;8.10;99.90;;;;;;5050023;28;8872;-54
2021/12/19 09:22:13;;;;;;;;;31.33;31.33;8.10;99.90;;;;;;5048038;28;8855;-52
2021/12/19 09:24:44;;;;;;;;;33.67;32.67;8.10;99.90;;;;;;5048218;28;8985;-51
2021/12/19 09:27:16;;;;;;;;;27.67;27.67;8.10;99.90;;;;;;5046992;28;9892;-53
2021/12/19 09:29:47;;;;;;;;;30.00;27.67;8.10;99.90;;;;;;5047248;28;8866;-53
2021/12/19 09:32:18;;;;;;;;;30.33;30.33;8.10;99.90;;;;;;5046613;28;8853;-53
2021/12/19 09:34:48;;;;;;;;;33.67;28.33;8.10;99.90;;;;;;5047255;28;8853;-49
2021/12/19 09:37:20;;;;;;;;;26.67;26.67;8.10;99.90;;;;;;5041295;28;8861;-52
2021/12/19 09:39:51;;;;;;;;;28.33;28.33;8.10;99.90;;;;;;5045565;28;8864;-53
2021/12/19 09:42:32;;;;;;;;;29.67;29.67;8.10;99.90;;;;;;5044792;28;8798;-53
2021/12/19 09:45:05;;;;;;;;;27.00;27.00;8.10;99.90;;;;;;5046140;28;9561;-54
2021/12/19 09:47:35;;;;;;;;;39.33;36.33;8.10;99.90;;;;;;5043923;28;8898;-54
2021/12/19 09:50:07;;;;;;;;;26.67;26.67;8.10;99.90;;;;;;5048944;28;8839;-53
2021/12/19 09:52:37;;;;;;;;;29.67;28.00;8.10;99.90;;;;;;5042706;28;8861;-52
2021/12/19 09:55:09;;;;;;;;;26.67;26.67;8.10;99.90;;;;;;5042694;28;8865;-53
2021/12/19 09:57:40;;;;;;;;;27.33;27.33;8.10;99.90;;;;;;5040195;28;8857;-54
2021/12/19 10:00:11;;;;;;;;;22.33;22.33;8.00;99.90;;;;;;5048707;28;8888;-53
2021/12/19 10:02:42;;;;;;;;;20.00;20.00;8.00;99.90;;;;;;5049879;28;8829;-52
2021/12/19 10:05:21;;;;;;;;;23.00;22.67;8.10;99.90;;;;;;5041651;28;8846;-55
2021/12/19 10:07:56;;;;;;;;;18.00;18.00;8.00;99.90;;;;;;5041607;28;8838;-53
2021/12/19 10:10:53;;;;;;;;;19.67;17.00;8.00;99.90;;;;;;5044541;28;8841;-52
2021/12/19 10:13:35;;;;;;;;;26.33;24.33;8.00;99.90;;;;;;5042411;28;8859;-52
2021/12/19 10:16:30;;;;;;;;;25.33;25.33;8.00;99.90;;;;;;5030351;28;8844;-52
2021/12/19 10:19:01;;;;;;;;;27.67;27.33;8.00;99.90;;;;;;5051574;28;8825;-53
2021/12/19 10:21:36;;;;;;;;;20.33;19.00;8.00;99.90;;;;;;5035310;28;8866;-52
2021/12/19 10:24:06;;;;;;;;;10.00;10.00;8.00;99.90;;;;;;5050062;28;8830;-53
2021/12/19 10:26:43;;;;;;;;;23.00;23.00;8.00;99.90;;;;;;5041072;28;8868;-53
2021/12/19 10:29:13;;;;;;;;;10.33;10.33;8.00;99.90;;;;;;5044238;28;9554;-53
2021/12/19 10:31:43;;;;;;;;;20.00;20.00;8.00;99.90;;;;;;5045657;28;8858;-52
2021/12/19 10:34:24;;;;;;;;;25.33;25.33;8.00;99.90;;;;;;5045734;28;9022;-51
2021/12/19 10:36:54;;;;;;;;;19.00;19.00;8.00;99.90;;;;;;5036194;28;8978;-55
2021/12/19 10:39:34;;;;;;;;;21.33;21.33;7.90;99.90;;;;;;5050982;28;9563;-50
2021/12/19 10:42:05;;;;;;;;;22.00;22.00;7.90;99.90;;;;;;5044263;28;8985;-54
2021/12/19 10:47:30;;;;;;;;;26.00;26.00;7.90;99.90;;;;;;5036753;28;8885;-53
2021/12/19 10:50:01;;;;;;;;;22.00;22.00;7.90;99.90;;;;;;5049954;28;8910;-51
2021/12/19 10:52:38;;;;;;;;;19.67;19.67;7.80;99.90;;;;;;5029881;28;8856;-53
2021/12/19 10:55:14;;;;;;;;;21.67;21.67;7.80;99.90;;;;;;5043946;28;8842;-53
2021/12/19 10:57:46;;;;;;;;;24.33;23.00;7.80;99.90;;;;;;5037861;28;8939;-52
2021/12/19 11:00:26;;;;;;;;;21.33;21.33;7.70;99.90;;;;;;5027157;28;8882;-52
2021/12/19 11:02:56;;;;;;;;;23.00;23.00;7.70;99.90;;;;;;5039949;28;8901;-52
2021/12/19 11:05:46;;;;;;;;;21.33;21.33;7.70;99.90;;;;;;5042649;28;8884;-54
2021/12/19 11:08:17;;;;;;;;;24.33;24.33;7.70;99.90;;;;;;5039154;28;8868;-52
2021/12/19 11:10:49;;;;;;;;;27.00;24.67;7.70;99.90;;;;;;5042515;28;8903;-51
2021/12/19 11:13:19;;;;;;;;;25.00;25.00;7.70;99.90;;;;;;5039392;28;9752;-51
2021/12/19 11:15:50;;;;;;;;;22.33;22.33;7.70;99.90;;;;;;5039791;28;8859;-50
2021/12/19 11:18:20;;;;;;;;;25.67;25.67;7.70;99.90;;;;;;5041097;28;8840;-51
2021/12/19 11:20:50;;;;;;;;;19.67;19.67;7.70;99.90;;;;;;5042307;28;8862;-50
2021/12/19 11:23:19;;;;;;;;;22.00;22.00;7.70;99.90;;;;;;5042940;28;8927;-52
2021/12/19 11:25:51;;;;;;;;;25.33;22.67;7.70;99.90;;;;;;5052624;28;8856;-52
2021/12/19 11:28:23;;;;;;;;;24.67;24.67;7.60;99.90;;;;;;5042490;28;8889;-52
2021/12/19 11:30:54;;;;;;;;;22.67;22.67;7.60;99.90;;;;;;5050940;28;8876;-52
2021/12/19 11:34:06;;;;;;;;;23.33;23.33;7.60;99.90;;;;;;5037170;28;8890;-50
2021/12/19 11:36:41;;;;;;;;;21.67;21.67;7.60;99.90;;;;;;5063607;28;8827;-52
2021/12/19 11:39:14;;;;;;;;;23.00;23.00;7.60;99.90;;;;;;5051189;28;8849;-54
2021/12/19 11:42:15;;;;;;;;;26.00;24.33;7.60;99.90;;;;;;5052491;28;8879;-49
2021/12/19 11:47:51;;;;;;;;;25.33;25.33;7.60;99.90;;;;;;5049315;28;8872;-52
2021/12/19 11:50:28;;;;;;;;;20.00;20.00;7.60;99.90;;;;;;5042900;28;8962;-52
2021/12/19 11:53:10;;;;;;;;;23.67;23.67;7.60;99.90;;;;;;5041132;28;8844;-53
2021/12/19 11:55:41;;;;;;;;;18.00;18.00;7.60;99.90;;;;;;5051446;28;8826;-53
2021/12/19 11:58:23;;;;;;;;;22.00;22.00;7.60;99.90;;;;;;5044030;28;8864;-52
2021/12/19 12:01:05;;;;;;;;;24.67;24.67;7.60;99.90;;;;;;5047756;28;9478;-53
2021/12/19 12:03:47;;;;;;;;;23.00;23.00;7.60;99.90;;;;;;5042452;28;8836;-51
2021/12/19 12:06:21;;;;;;;;;22.00;22.00;7.60;99.90;;;;;;5045334;28;8843;-53
2021/12/19 12:09:23;;;;;;;;;23.33;23.33;7.60;99.90;;;;;;5044677;28;8860;-52
2021/12/19 12:12:07;;;;;;;;;25.00;25.00;7.50;99.90;;;;;;5049994;28;8898;-53
2021/12/19 12:15:04;;;;;;;;;22.67;22.67;7.40;99.90;;;;;;5043046;28;8842;-53
2021/12/19 12:17:41;;;;;;;;;24.33;22.33;7.40;99.90;;;;;;5048576;28;8939;-53
2021/12/19 12:20:19;;;;;;;;;19.00;19.00;7.40;99.90;;;;;;5027196;28;8857;-52
2021/12/19 12:22:53;;;;;;;;;23.00;23.00;7.50;99.90;;;;;;5028764;28;8876;-51
2021/12/19 12:25:28;;;;;;;;;21.33;21.33;7.50;99.90;;;;;;5024825;28;9771;-48
2021/12/19 12:28:08;;;;;;;;;25.00;17.33;7.50;99.90;;;;;;5027597;28;8896;-51
2021/12/19 12:30:52;;;;;;;;;22.33;22.33;7.50;99.90;;;;;;5027931;28;8885;-52
2021/12/19 12:33:28;;;;;;;;;24.67;24.00;7.50;99.90;;;;;;5021203;28;9675;-51
2021/12/19 12:35:59;;;;;;;;;18.67;18.67;7.50;99.90;;;;;;5024322;28;8818;-53
2021/12/19 12:38:32;;;;;;;;;25.33;25.00;7.50;99.90;;;;;;5025103;28;8866;-51
2021/12/19 12:41:09;;;;;;;;;21.33;20.33;7.50;99.90;;;;;;5033301;28;11034;-52
2021/12/19 12:43:40;;;;;;;;;24.33;23.33;7.50;99.90;;;;;;5031137;28;8883;-51
2021/12/19 12:46:15;;;;;;;;;19.33;17.33;7.50;99.90;;;;;;5025181;28;8898;-52
2021/12/19 12:49:03;;;;;;;;;22.33;20.00;7.50;99.90;;;;;;5033441;28;8857;-52
2021/12/19 12:51:46;;;;;;;;;23.00;23.00;7.50;99.90;;;;;;5027889;28;8850;-53
2021/12/19 12:54:25;;;;;;;;;25.00;22.33;7.50;99.90;;;;;;5022591;28;8880;-50
2021/12/19 12:56:58;;;;;;;;;23.00;23.00;7.50;99.90;;;;;;5031182;28;8858;-52
2021/12/19 12:59:31;;;;;;;;;28.00;27.00;7.50;99.90;;;;;;5022647;28;8869;-52
2021/12/19 13:02:25;;;;;;;;;25.33;25.33;7.50;99.90;;;;;;5032567;28;8885;-53
2021/12/19 13:04:59;;;;;;;;;23.67;20.33;7.50;99.90;;;;;;5028821;28;9730;-52
2021/12/19 13:07:29;;;;;;;;;19.67;19.67;7.40;99.90;;;;;;5032050;28;8891;-50
2021/12/19 13:10:01;;;;;;;;;18.67;18.67;7.40;99.90;;;;;;5022289;28;8838;-50
2021/12/19 13:12:33;;;;;;;;;22.33;22.33;7.40;99.90;;;;;;5025267;28;9019;-50
2021/12/19 13:15:10;;;;;;;;;26.33;26.33;7.40;99.90;;;;;;5027215;28;8855;-52
2021/12/19 13:17:40;;;;;;;;;25.00;24.67;7.40;99.90;;;;;;5028514;28;9635;-50
2021/12/19 13:20:25;;;;;;;;;19.33;19.33;7.40;99.90;;;;;;5022048;28;8886;-53
2021/12/19 13:23:00;;;;;;;;;22.33;22.33;7.40;99.90;;;;;;5028700;28;8833;-50
2021/12/19 13:25:44;;;;;;;;;27.00;27.00;7.40;99.90;;;;;;5022836;28;8888;-52
2021/12/19 13:28:20;;;;;;;;;21.33;21.33;7.40;99.90;;;;;;5021420;28;9577;-51
2021/12/19 13:30:54;;;;;;;;;23.67;23.67;7.20;99.90;;;;;;5025067;28;8958;-52
2021/12/19 13:33:28;;;;;;;;;20.67;20.67;7.20;99.90;;;;;;5021928;28;9611;-52
2021/12/19 13:35:59;;;;;;;;;22.00;22.00;7.10;99.90;;;;;;5024837;28;8831;-51
2021/12/19 13:38:32;;;;;;;;;19.67;19.67;7.10;99.90;;;;;;5023356;28;8909;-51
2021/12/19 13:41:05;;;;;;;;;20.33;20.33;7.00;99.90;;;;;;5023311;28;8837;-51
2021/12/19 13:43:37;;;;;;;;;25.67;25.67;7.00;99.90;;;;;;5024246;28;8909;-52
2021/12/19 13:46:10;;;;;;;;;20.00;20.00;7.00;99.90;;;;;;5022535;28;9681;-50
2021/12/19 13:48:57;;;;;;;;;22.67;22.67;7.00;99.90;;;;;;5022546;28;8852;-51
2021/12/19 13:51:32;;;;;;;;;24.00;23.67;6.90;99.90;;;;;;5022341;28;8857;-51
2021/12/19 13:54:03;;;;;;;;;26.00;24.67;6.90;99.90;;;;;;5031854;28;8835;-52
2021/12/19 13:56:36;;;;;;;;;23.67;22.67;6.90;99.90;;;;;;5025307;28;8908;-50
2021/12/19 13:59:17;;;;;;;;;27.33;24.67;6.80;99.90;;;;;;5028596;28;8875;-52
2021/12/19 14:01:50;;;;;;;;;23.67;22.33;6.80;99.90;;;;;;5030294;28;9548;-51
2021/12/19 14:04:28;;;;;;;;;26.33;26.33;6.80;99.90;;;;;;5029614;28;9579;-50
2021/12/19 14:07:03;;;;;;;;;27.33;27.33;6.70;99.90;;;;;;5024539;28;10043;-51
2021/12/19 14:09:57;;;;;;;;;28.00;28.00;6.70;99.90;;;;;;5023569;28;9019;-52
2021/12/19 14:12:57;;;;;;;;;24.67;24.67;6.70;99.90;;;;;;5025994;28;8873;-52
2021/12/19 14:15:20;;;;;;;;;25.33;25.33;6.60;99.90;;;;;;5025734;28;8908;-52
2021/12/19 14:17:50;;;;;;;;;25.67;25.67;6.60;99.90;;;;;;5028222;28;8863;-53
2021/12/19 14:20:36;;;;;;;;;29.33;29.33;6.60;99.90;;;;;;5024186;28;8942;-53
2021/12/19 14:23:19;;;;;;;;;24.00;24.00;6.60;99.90;;;;;;5031189;28;8873;-52
2021/12/19 14:25:51;;;;;;;;;25.33;25.33;6.50;99.90;;;;;;5029342;28;8877;-49